createdAt,value
2023-04-12T00:02:22.099Z,8.90
2023-04-12T00:04:55.802Z,8.90
2023-04-12T00:07:24.134Z,8.80
2023-04-12T00:09:52.256Z,8.90
2023-04-12T00:12:21.853Z,8.90
2023-04-12T00:14:50.085Z,9.00
2023-04-12T00:17:19.158Z,8.90
2023-04-12T00:19:48.872Z,8.80
2023-04-12T00:22:17.312Z,8.80
2023-04-12T00:24:47.352Z,8.90
2023-04-12T00:27:15.761Z,8.90
2023-04-12T00:29:45.487Z,8.90
2023-04-12T00:32:13.780Z,8.90
2023-04-12T00:34:42.095Z,8.90
2023-04-12T00:37:10.971Z,9.00
2023-04-12T00:39:39.482Z,9.00
2023-04-12T00:42:08.111Z,9.00
2023-04-12T00:44:36.560Z,8.90
2023-04-12T00:47:07.958Z,8.90
2023-04-12T00:49:37.037Z,9.00
2023-04-12T00:52:08.687Z,8.90
2023-04-12T00:54:37.483Z,9.00
2023-04-12T00:57:05.740Z,8.90
2023-04-12T00:59:33.901Z,8.90
2023-04-12T01:02:03.659Z,8.90
2023-04-12T01:04:34.646Z,9.00
2023-04-12T01:07:15.641Z,9.00
2023-04-12T01:09:52.357Z,9.10
2023-04-12T01:12:30.399Z,9.00
2023-04-12T01:15:07.018Z,9.10
2023-04-12T01:17:54.004Z,9.20
2023-04-12T01:20:26.566Z,9.20
2023-04-12T01:23:16.222Z,9.10
2023-04-12T01:26:00.499Z,9.10
2023-04-12T01:28:34.754Z,9.10
2023-04-12T01:31:04.532Z,9.10
2023-04-12T01:33:35.437Z,9.10
2023-04-12T01:36:07.648Z,9.20
2023-04-12T01:38:36.819Z,9.20
2023-04-12T01:41:05.476Z,9.20
2023-04-12T01:43:35.097Z,9.20
2023-04-12T01:46:04.353Z,9.20
2023-04-12T01:48:32.505Z,9.20
2023-04-12T01:51:06.658Z,9.10
2023-04-12T01:53:44.781Z,9.10
2023-04-12T01:56:13.600Z,9.20
2023-04-12T01:58:45.937Z,9.20
2023-04-12T02:01:16.676Z,9.20
2023-04-12T02:03:45.302Z,9.30
2023-04-12T02:06:14.045Z,9.30
2023-04-12T02:08:42.765Z,9.30
2023-04-12T02:11:11.413Z,9.40
2023-04-12T02:13:39.675Z,9.30
2023-04-12T02:16:11.056Z,9.40
2023-04-12T02:18:41.748Z,9.40
2023-04-12T02:21:09.980Z,9.40
2023-04-12T02:23:38.345Z,9.50
2023-04-12T02:26:06.836Z,9.50
2023-04-12T02:28:37.241Z,9.50
2023-04-12T02:31:06.244Z,9.60
2023-04-12T02:33:36.151Z,9.50
2023-04-12T02:36:04.550Z,9.60
2023-04-12T02:38:32.739Z,9.60
2023-04-12T02:41:01.046Z,9.60
2023-04-12T02:43:29.217Z,9.70
2023-04-12T02:45:57.699Z,9.60
2023-04-12T02:48:26.259Z,9.60
2023-04-12T02:50:56.198Z,9.70
2023-04-12T02:53:24.541Z,9.70
2023-04-12T02:55:52.689Z,9.70
2023-04-12T02:58:21.049Z,9.60
2023-04-12T03:00:51.336Z,9.60
2023-04-12T03:03:19.849Z,9.60
2023-04-12T03:05:48.310Z,9.60
2023-04-12T03:08:18.147Z,9.70
2023-04-12T03:10:46.259Z,9.70
2023-04-12T03:13:14.661Z,9.80
2023-04-12T03:15:44.018Z,9.80
2023-04-12T03:18:12.224Z,9.70
2023-04-12T03:20:41.747Z,9.80
2023-04-12T03:23:10.003Z,9.90
2023-04-12T03:25:39.491Z,9.90
2023-04-12T03:28:07.791Z,9.90
2023-04-12T03:30:36.184Z,9.90
2023-04-12T03:33:04.403Z,9.90
2023-04-12T03:35:32.782Z,9.90
2023-04-12T03:38:01.031Z,9.90
2023-04-12T03:40:29.184Z,10.00
2023-04-12T03:43:01.775Z,10.00
2023-04-12T03:45:30.750Z,10.10
2023-04-12T03:47:59.201Z,10.10
2023-04-12T03:50:29.636Z,10.20
2023-04-12T03:52:57.794Z,10.30
2023-04-12T03:55:26.263Z,10.30
2023-04-12T03:57:56.608Z,10.40
2023-04-12T04:00:26.709Z,10.30
2023-04-12T04:02:55.283Z,10.20
2023-04-12T04:05:23.455Z,10.30
2023-04-12T04:07:52.782Z,10.30
2023-04-12T04:10:21.449Z,10.30
2023-04-12T04:12:49.569Z,10.40
2023-04-12T04:15:18.293Z,10.40
2023-04-12T04:17:49.277Z,10.40
2023-04-12T04:20:18.068Z,10.40
2023-04-12T04:22:48.346Z,10.20
2023-04-12T04:25:17.044Z,10.20
2023-04-12T04:27:46.076Z,10.20
2023-04-12T04:30:15.489Z,10.30
2023-04-12T04:32:44.342Z,10.20
2023-04-12T04:35:17.063Z,10.20
2023-04-12T04:37:45.546Z,10.30
2023-04-12T04:40:14.749Z,10.30
2023-04-12T04:42:43.360Z,10.30
2023-04-12T04:45:14.785Z,10.30
2023-04-12T04:47:43.250Z,10.30
2023-04-12T04:50:13.591Z,10.20
2023-04-12T04:52:41.695Z,10.30
2023-04-12T04:55:11.632Z,10.40
2023-04-12T04:57:40.021Z,10.30
2023-04-12T05:00:11.583Z,10.20
2023-04-12T05:02:43.205Z,10.20
2023-04-12T05:05:13.958Z,10.20
2023-04-12T05:07:43.469Z,10.10
2023-04-12T05:10:12.713Z,10.10
2023-04-12T05:12:40.944Z,10.00
2023-04-12T05:15:11.969Z,10.10
2023-04-12T05:17:40.834Z,10.00
2023-04-12T05:20:11.996Z,10.00
2023-04-12T05:22:41.721Z,10.10
2023-04-12T05:25:10.665Z,10.10
2023-04-12T05:27:39.087Z,10.10
2023-04-12T05:30:09.289Z,10.00
2023-04-12T05:32:37.394Z,10.10
2023-04-12T05:35:07.072Z,10.00
2023-04-12T05:37:35.664Z,10.00
2023-04-12T05:40:07.339Z,10.00
2023-04-12T05:42:37.280Z,10.00
2023-04-12T05:45:06.349Z,10.10
2023-04-12T05:47:34.472Z,10.10
2023-04-12T05:50:04.308Z,10.10
2023-04-12T05:52:33.891Z,10.00
2023-04-12T05:55:02.059Z,9.90
2023-04-12T05:57:31.798Z,9.90
2023-04-12T05:59:59.942Z,10.10
2023-04-12T06:02:28.299Z,9.90
2023-04-12T06:04:58.445Z,9.80
2023-04-12T06:07:26.786Z,9.90
2023-04-12T06:09:54.903Z,10.00
2023-04-12T06:12:23.522Z,10.10
2023-04-12T06:14:53.159Z,10.10
2023-04-12T06:17:21.275Z,9.90
2023-04-12T06:19:49.550Z,9.80
2023-04-12T06:22:17.737Z,9.90
2023-04-12T06:24:45.863Z,9.80
2023-04-12T06:27:14.438Z,9.80
2023-04-12T06:29:42.601Z,9.80
2023-04-12T06:32:12.073Z,9.80
2023-04-12T06:34:40.636Z,9.90
2023-04-12T06:37:08.880Z,9.90
2023-04-12T06:39:37.130Z,9.90
2023-04-12T06:42:05.925Z,10.00
2023-04-12T06:44:34.356Z,10.20
2023-04-12T06:47:02.541Z,10.40
2023-04-12T06:49:32.706Z,10.60
2023-04-12T06:52:01.178Z,10.70
2023-04-12T06:54:29.355Z,10.80
2023-04-12T06:56:57.870Z,10.90
2023-04-12T06:59:26.131Z,10.80
2023-04-12T07:01:54.299Z,10.80
2023-04-12T07:04:22.688Z,10.70
2023-04-12T07:06:52.277Z,10.80
2023-04-12T07:09:20.651Z,10.80
2023-04-12T07:11:49.916Z,10.90
2023-04-12T07:14:18.197Z,10.90
2023-04-12T07:16:46.408Z,11.10
2023-04-12T07:19:14.875Z,11.00
2023-04-12T07:21:43.077Z,11.10
2023-04-12T07:24:12.723Z,11.20
2023-04-12T07:26:41.397Z,11.20
2023-04-12T07:29:09.708Z,11.20
2023-04-12T07:31:37.826Z,11.20
2023-04-12T07:34:06.238Z,11.20
2023-04-12T07:36:34.618Z,11.20
2023-04-12T07:39:02.800Z,11.20
2023-04-12T07:41:32.502Z,11.10
2023-04-12T07:44:00.863Z,11.00
2023-04-12T07:46:29.384Z,11.10
2023-04-12T07:48:57.815Z,11.10
2023-04-12T07:51:26.826Z,11.30
2023-04-12T07:53:55.566Z,11.50
2023-04-12T07:56:24.041Z,11.40
2023-04-12T07:58:53.592Z,11.40
2023-04-12T08:01:21.878Z,11.40
2023-04-12T08:03:50.162Z,11.50
2023-04-12T08:06:18.445Z,11.70
2023-04-12T08:08:47.038Z,11.90
2023-04-12T08:11:15.244Z,11.90
2023-04-12T08:13:43.346Z,12.00
2023-04-12T08:16:13.284Z,12.10
2023-04-12T08:18:41.707Z,12.20
2023-04-12T08:21:09.925Z,12.20
2023-04-12T08:23:38.199Z,12.30
2023-04-12T08:26:06.973Z,12.20
2023-04-12T08:28:36.098Z,12.30
2023-04-12T08:31:04.932Z,12.30
2023-04-12T08:33:34.559Z,12.30
2023-04-12T08:36:03.022Z,12.30
2023-04-12T08:41:06.612Z,12.70
2023-04-12T08:43:35.730Z,12.80
2023-04-12T08:46:03.954Z,13.00
2023-04-12T08:48:32.445Z,13.20
2023-04-12T08:51:02.506Z,13.40
2023-04-12T08:53:31.724Z,13.60
2023-04-12T08:56:00.343Z,13.60
2023-04-12T08:58:29.256Z,13.70
2023-04-12T09:00:58.079Z,13.80
2023-04-12T09:03:26.979Z,13.90
2023-04-12T09:05:55.682Z,14.00
2023-04-12T09:08:26.190Z,14.00
2023-04-12T09:10:54.533Z,14.00
2023-04-12T09:13:34.649Z,14.00
2023-04-12T09:16:03.392Z,13.90
2023-04-12T09:18:31.748Z,13.90
2023-04-12T09:21:09.547Z,14.00
2023-04-12T09:23:39.369Z,14.10
2023-04-12T09:26:08.281Z,14.10
2023-04-12T09:28:36.717Z,14.00
2023-04-12T09:31:05.286Z,14.00
2023-04-12T09:33:38.702Z,13.90
2023-04-12T09:36:09.408Z,13.60
2023-04-12T09:38:39.673Z,13.60
2023-04-12T09:41:21.340Z,13.60
2023-04-12T09:43:51.707Z,13.50
2023-04-12T09:46:20.109Z,13.40
2023-04-12T09:48:52.383Z,13.40
2023-04-12T09:51:29.334Z,13.50
2023-04-12T09:54:01.514Z,13.70
2023-04-12T09:56:32.381Z,13.60
2023-04-12T09:59:03.716Z,13.60
2023-04-12T10:01:36.372Z,13.60
2023-04-12T10:04:06.717Z,13.60
2023-04-12T10:06:35.464Z,13.70
2023-04-12T10:09:08.251Z,13.60
2023-04-12T10:11:40.608Z,13.40
2023-04-12T10:14:10.118Z,13.40
2023-04-12T10:16:41.579Z,13.50
2023-04-12T10:19:11.833Z,13.40
2023-04-12T10:21:40.214Z,13.40
2023-04-12T10:24:11.046Z,13.40
2023-04-12T10:26:45.837Z,13.50
2023-04-12T10:29:27.952Z,13.80
2023-04-12T10:31:57.386Z,14.20
2023-04-12T10:34:28.676Z,14.70
2023-04-12T10:36:58.639Z,15.10
2023-04-12T10:39:40.303Z,15.40
2023-04-12T10:42:25.997Z,15.40
2023-04-12T10:44:56.270Z,15.30
2023-04-12T10:48:01.802Z,15.00
2023-04-12T10:50:30.393Z,14.40
2023-04-12T10:53:25.268Z,13.70
2023-04-12T10:55:55.221Z,13.20
2023-04-12T10:59:06.353Z,13.00
2023-04-12T11:01:38.420Z,12.90
2023-04-12T11:04:13.530Z,12.80
2023-04-12T11:07:07.541Z,12.50
2023-04-12T11:09:41.102Z,12.30
2023-04-12T11:12:15.756Z,12.00
2023-04-12T11:14:49.111Z,11.90
2023-04-12T11:17:27.788Z,11.80
2023-04-12T11:20:00.877Z,11.80
2023-04-12T11:22:31.406Z,11.80
2023-04-12T11:25:01.863Z,11.80
2023-04-12T11:27:32.480Z,11.90
2023-04-12T11:30:02.368Z,12.40
2023-04-12T11:32:32.173Z,13.00
2023-04-12T11:35:00.649Z,13.60
2023-04-12T11:37:31.461Z,14.00
2023-04-12T11:40:00.423Z,14.50
2023-04-12T11:42:30.600Z,14.90
2023-04-12T11:45:06.494Z,15.20
2023-04-12T11:47:44.699Z,15.10
2023-04-12T11:50:13.493Z,15.10
2023-04-12T11:52:42.423Z,14.90
2023-04-12T11:55:13.506Z,14.90
2023-04-12T11:57:42.146Z,15.00
2023-04-12T12:00:13.490Z,15.40
2023-04-12T12:02:49.276Z,15.40
2023-04-12T12:05:21.846Z,15.70
2023-04-12T12:07:50.583Z,15.90
2023-04-12T12:10:36.661Z,15.90
2023-04-12T12:13:12.389Z,16.10
2023-04-12T12:15:48.022Z,16.20
2023-04-12T12:18:16.615Z,16.00
2023-04-12T12:20:50.270Z,16.00
2023-04-12T12:23:29.147Z,16.20
2023-04-12T12:26:14.354Z,16.50
2023-04-12T12:28:51.950Z,16.70
2023-04-12T12:31:23.260Z,16.50
2023-04-12T12:33:58.387Z,16.10
2023-04-12T12:36:34.278Z,15.70
2023-04-12T12:39:10.810Z,15.10
2023-04-12T12:41:39.715Z,14.60
2023-04-12T12:44:08.308Z,14.40
2023-04-12T12:49:09.369Z,14.90
2023-04-12T12:51:37.748Z,15.40
2023-04-12T12:54:06.517Z,15.80
2023-04-12T12:56:35.697Z,15.80
2023-04-12T12:59:03.953Z,15.70
2023-04-12T13:01:32.352Z,15.40
2023-04-12T13:04:02.372Z,14.70
2023-04-12T13:06:32.070Z,14.30
2023-04-12T13:09:00.863Z,14.00
2023-04-12T13:11:29.201Z,13.70
2023-04-12T13:13:57.360Z,13.70
2023-04-12T13:16:26.935Z,13.80
2023-04-12T13:18:56.145Z,13.80
2023-04-12T13:21:27.470Z,13.60
2023-04-12T13:23:55.778Z,13.50
2023-04-12T13:26:25.703Z,13.80
2023-04-12T13:28:54.447Z,14.00
2023-04-12T13:31:22.997Z,13.90
2023-04-12T13:33:51.290Z,13.80
2023-04-12T13:36:19.884Z,13.60
2023-04-12T13:38:49.475Z,13.60
2023-04-12T13:41:19.130Z,13.60
2023-04-12T13:43:47.633Z,13.60
2023-04-12T13:46:16.126Z,13.60
2023-04-12T13:48:44.384Z,13.80
2023-04-12T13:51:12.924Z,14.30
2023-04-12T13:53:41.233Z,14.50
2023-04-12T13:56:11.868Z,14.70
2023-04-12T13:58:40.813Z,14.70
2023-04-12T14:01:09.353Z,14.90
2023-04-12T14:03:38.106Z,15.10
2023-04-12T14:06:07.485Z,15.20
2023-04-12T14:08:35.778Z,15.30
2023-04-12T14:11:06.697Z,15.30
2023-04-12T14:13:36.511Z,15.10
2023-04-12T14:16:04.792Z,15.00
2023-04-12T14:18:33.195Z,14.90
2023-04-12T14:21:03.640Z,14.80
2023-04-12T14:23:32.123Z,15.00
2023-04-12T14:26:00.632Z,14.90
2023-04-12T14:28:31.280Z,14.90
2023-04-12T14:31:03.567Z,14.80
2023-04-12T14:33:33.500Z,14.80
2023-04-12T14:36:05.246Z,14.90
2023-04-12T14:38:33.857Z,14.90
2023-04-12T14:41:03.056Z,14.90
2023-04-12T14:43:31.596Z,14.90
2023-04-12T14:46:01.956Z,15.00
2023-04-12T14:48:30.528Z,14.90
2023-04-12T14:50:58.806Z,14.60
2023-04-12T14:53:27.087Z,14.60
2023-04-12T14:55:55.316Z,14.60
2023-04-12T14:58:23.652Z,14.60
2023-04-12T15:00:52.557Z,14.60
2023-04-12T15:03:22.560Z,14.70
2023-04-12T15:05:51.144Z,14.50
2023-04-12T15:08:19.439Z,14.40
2023-04-12T15:10:47.966Z,14.20
2023-04-12T15:13:16.277Z,14.00
2023-04-12T15:15:47.423Z,13.80
2023-04-12T15:18:16.285Z,13.70
2023-04-12T15:20:46.319Z,13.50
2023-04-12T15:23:14.531Z,13.50
2023-04-12T15:25:42.801Z,13.60
2023-04-12T15:28:11.085Z,13.60
2023-04-12T15:30:39.211Z,13.70
2023-04-12T15:33:07.641Z,13.80
2023-04-12T15:35:35.920Z,13.80
2023-04-12T15:38:05.400Z,13.90
2023-04-12T15:40:33.716Z,13.80
2023-04-12T15:43:02.090Z,13.50
2023-04-12T15:45:30.627Z,13.50
2023-04-12T15:47:59.641Z,13.50
2023-04-12T15:50:28.024Z,13.40
2023-04-12T15:52:57.829Z,13.20
2023-04-12T15:55:27.703Z,13.20
2023-04-12T15:57:57.187Z,13.40
2023-04-12T16:00:27.084Z,13.50
2023-04-12T16:02:56.796Z,13.60
2023-04-12T16:05:26.730Z,13.60
2023-04-12T16:07:56.504Z,13.60
2023-04-12T16:10:26.350Z,13.50
2023-04-12T16:12:56.490Z,13.50
2023-04-12T16:15:24.757Z,13.40
2023-04-12T16:17:54.581Z,13.30
2023-04-12T16:20:23.997Z,13.40
2023-04-12T16:22:55.112Z,13.50
2023-04-12T16:25:24.519Z,13.40
2023-04-12T16:27:54.496Z,13.20
2023-04-12T16:30:23.676Z,13.20
2023-04-12T16:32:52.347Z,13.30
2023-04-12T16:35:20.717Z,13.40
2023-04-12T16:37:48.841Z,13.40
2023-04-12T16:40:17.384Z,13.30
2023-04-12T16:42:46.588Z,13.20
2023-04-12T16:45:16.348Z,13.10
2023-04-12T16:47:48.278Z,13.10
2023-04-12T16:50:16.661Z,13.10
2023-04-12T16:52:44.858Z,13.10
2023-04-12T16:55:14.166Z,13.00
2023-04-12T16:57:44.392Z,12.70
2023-04-12T17:00:21.843Z,12.60
2023-04-12T17:02:52.697Z,12.60
2023-04-12T17:05:21.819Z,12.60
2023-04-12T17:07:51.908Z,12.50
2023-04-12T17:10:21.726Z,12.30
2023-04-12T17:12:52.864Z,12.30
2023-04-12T17:15:22.117Z,12.20
2023-04-12T17:17:54.152Z,12.10
2023-04-12T17:20:23.604Z,12.00
2023-04-12T17:22:53.163Z,11.90
2023-04-12T17:25:24.687Z,11.90
2023-04-12T17:27:55.714Z,11.80
2023-04-12T17:30:24.063Z,11.80
2023-04-12T17:32:53.941Z,11.70
2023-04-12T17:35:22.448Z,11.70
2023-04-12T17:37:50.843Z,11.60
2023-04-12T17:40:19.274Z,11.50
2023-04-12T17:42:47.896Z,11.40
2023-04-12T17:45:18.504Z,11.20
2023-04-12T17:47:46.681Z,11.10
2023-04-12T17:50:16.424Z,10.90
2023-04-12T17:52:44.640Z,10.90
2023-04-12T17:55:13.484Z,10.80
2023-04-12T17:57:44.335Z,10.70
2023-04-12T18:00:13.608Z,10.60
2023-04-12T18:02:42.289Z,10.50
2023-04-12T18:05:11.389Z,10.50
2023-04-12T18:07:41.395Z,10.30
2023-04-12T18:10:12.858Z,10.20
2023-04-12T18:12:41.238Z,10.10
2023-04-12T18:15:11.457Z,10.10
2023-04-12T18:17:40.880Z,9.90
2023-04-12T18:20:11.468Z,9.90
2023-04-12T18:22:42.549Z,10.00
2023-04-12T18:25:12.827Z,10.00
2023-04-12T18:27:41.653Z,9.80
2023-04-12T18:30:10.601Z,9.70
2023-04-12T18:32:39.041Z,9.70
2023-04-12T18:35:08.280Z,9.70
2023-04-12T18:37:37.328Z,9.60
2023-04-12T18:40:08.367Z,9.50
2023-04-12T18:42:36.700Z,9.40
2023-04-12T18:45:06.173Z,9.50
2023-04-12T18:47:34.481Z,9.50
2023-04-12T18:50:03.062Z,9.60
2023-04-12T18:52:31.487Z,9.60
2023-04-12T18:54:59.784Z,9.40
2023-04-12T18:57:30.745Z,9.40
2023-04-12T18:59:59.283Z,9.30
2023-04-12T19:02:28.492Z,9.50
2023-04-12T19:04:57.034Z,9.40
2023-04-12T19:07:25.426Z,9.30
2023-04-12T19:09:54.298Z,9.20
2023-04-12T19:12:22.630Z,9.20
2023-04-12T19:14:52.663Z,9.10
2023-04-12T19:17:24.895Z,9.00
2023-04-12T19:19:53.481Z,9.20
2023-04-12T19:22:22.691Z,9.10
2023-04-12T19:24:51.628Z,9.20
2023-04-12T19:27:20.117Z,9.20
2023-04-12T19:29:48.284Z,9.00
2023-04-12T19:32:18.376Z,8.90
2023-04-12T19:34:48.161Z,9.00
2023-04-12T19:37:17.093Z,9.10
2023-04-12T19:39:45.555Z,9.10
2023-04-12T19:42:15.134Z,9.00
2023-04-12T19:44:43.612Z,9.00
2023-04-12T19:47:12.012Z,9.00
2023-04-12T19:49:42.452Z,9.00
2023-04-12T19:52:11.109Z,9.10
2023-04-12T19:54:39.618Z,9.10
2023-04-12T19:57:08.407Z,9.20
2023-04-12T19:59:36.955Z,9.30
2023-04-12T20:02:05.357Z,9.20
2023-04-12T20:04:34.410Z,9.30
2023-04-12T20:07:04.871Z,9.30
2023-04-12T20:09:34.428Z,9.30
2023-04-12T20:12:04.050Z,9.40
2023-04-12T20:14:35.310Z,9.50
2023-04-12T20:17:06.066Z,9.50
2023-04-12T20:19:34.432Z,9.30
2023-04-12T20:22:04.182Z,9.20
2023-04-12T20:24:34.564Z,9.10
2023-04-12T20:27:03.823Z,9.10
2023-04-12T20:29:33.391Z,8.90
2023-04-12T20:32:02.587Z,8.90
2023-04-12T20:34:31.174Z,8.70
2023-04-12T20:37:00.038Z,8.60
2023-04-12T20:39:30.348Z,8.60
2023-04-12T20:42:01.168Z,8.50
2023-04-12T20:44:29.524Z,8.30
2023-04-12T20:46:58.748Z,8.20
2023-04-12T20:49:27.929Z,8.20
2023-04-12T20:51:57.302Z,8.10
2023-04-12T20:54:26.694Z,8.10
2023-04-12T20:56:58.957Z,8.10
2023-04-12T20:59:30.600Z,8.10
2023-04-12T21:01:59.694Z,8.10
2023-04-12T21:04:28.559Z,8.20
2023-04-12T21:06:57.655Z,8.30
2023-04-12T21:09:26.802Z,8.30
2023-04-12T21:11:56.180Z,8.30
2023-04-12T21:14:26.112Z,8.20
2023-04-12T21:16:54.345Z,8.30
2023-04-12T21:19:22.897Z,8.30
2023-04-12T21:21:52.273Z,8.30
2023-04-12T21:24:20.461Z,8.30
2023-04-12T21:26:56.596Z,8.30
2023-04-12T21:29:26.180Z,8.40
2023-04-12T21:31:54.374Z,8.40
2023-04-12T21:34:22.772Z,8.40
2023-04-12T21:36:50.945Z,8.40
2023-04-12T21:39:19.436Z,8.40
2023-04-12T21:41:47.774Z,8.40
2023-04-12T21:44:15.944Z,8.30
2023-04-12T21:46:45.566Z,8.30
2023-04-12T21:49:14.105Z,8.20
2023-04-12T21:51:42.300Z,8.10
2023-04-12T21:54:14.874Z,8.00
2023-04-12T21:56:43.123Z,7.90
2023-04-12T21:59:11.286Z,7.80
2023-04-12T22:01:39.632Z,7.80
2023-04-12T22:04:09.440Z,7.70
2023-04-12T22:06:37.621Z,7.60
2023-04-12T22:09:06.054Z,7.70
2023-04-12T22:11:34.401Z,7.80
2023-04-12T22:14:02.725Z,7.80
2023-04-12T22:16:32.965Z,7.80
2023-04-12T22:19:01.860Z,7.80
2023-04-12T22:21:33.694Z,7.80
2023-04-12T22:24:02.096Z,7.90
2023-04-12T22:26:31.578Z,7.80
2023-04-12T22:29:00.121Z,7.90
2023-04-12T22:31:28.336Z,7.90
2023-04-12T22:33:56.726Z,7.90
2023-04-12T22:36:29.484Z,7.90
2023-04-12T22:38:59.287Z,7.90
2023-04-12T22:41:28.741Z,7.80
2023-04-12T22:44:02.936Z,7.80
2023-04-12T22:46:33.239Z,7.80
2023-04-12T22:49:02.090Z,7.70
2023-04-12T22:51:30.458Z,7.80
2023-04-12T22:54:00.613Z,7.80
2023-04-12T22:56:29.241Z,7.90
2023-04-12T22:58:57.421Z,7.90
2023-04-12T23:01:26.476Z,8.00
2023-04-12T23:03:54.680Z,8.00
2023-04-12T23:06:22.855Z,8.00
2023-04-12T23:08:51.425Z,8.00
2023-04-12T23:11:21.755Z,8.00
2023-04-12T23:13:49.887Z,8.00
2023-04-12T23:16:18.494Z,7.90
2023-04-12T23:18:46.890Z,7.90
2023-04-12T23:21:15.717Z,7.90
2023-04-12T23:23:44.682Z,7.90
2023-04-12T23:26:13.248Z,7.90
2023-04-12T23:28:43.270Z,7.90
2023-04-12T23:31:11.649Z,7.80
2023-04-12T23:33:42.999Z,7.80
2023-04-12T23:36:12.178Z,7.80
2023-04-12T23:38:40.734Z,7.90
2023-04-12T23:41:11.597Z,7.80
2023-04-12T23:43:39.784Z,7.70
2023-04-12T23:46:09.874Z,7.80
2023-04-12T23:48:38.367Z,7.80
2023-04-12T23:51:07.442Z,7.80
2023-04-12T23:53:36.198Z,7.80
2023-04-12T23:56:04.410Z,7.80
2023-04-12T23:58:32.756Z,7.80
